sensor_id;sensor_type;location;lat;lon;timestamp;P1;P2;P0
69349;PMS5003;64554;43.452;4.934;2023-09-18T00:00:46;23.00;22.25;11.50
69349;PMS5003;64554;43.452;4.934;2023-09-18T00:03:13;17.75;16.75;11.00
69349;PMS5003;64554;43.452;4.934;2023-09-18T00:05:39;14.50;13.00;7.00
69349;PMS5003;64554;43.452;4.934;2023-09-18T00:08:06;19.75;17.75;8.00
69349;PMS5003;64554;43.452;4.934;2023-09-18T00:10:34;16.50;16.00;10.00
69349;PMS5003;64554;43.452;4.934;2023-09-18T00:13:01;17.00;16.00;10.25
69349;PMS5003;64554;43.452;4.934;2023-09-18T00:15:28;20.25;19.00;9.75
69349;PMS5003;64554;43.452;4.934;2023-09-18T00:17:55;24.40;18.40;11.00
69349;PMS5003;64554;43.452;4.934;2023-09-18T00:20:22;20.50;17.75;9.00
69349;PMS5003;64554;43.452;4.934;2023-09-18T00:22:54;22.60;21.60;11.60
69349;PMS5003;64554;43.452;4.934;2023-09-18T00:25:22;20.00;19.00;11.50
69349;PMS5003;64554;43.452;4.934;2023-09-18T00:27:48;20.50;18.50;10.00
69349;PMS5003;64554;43.452;4.934;2023-09-18T00:30:15;19.50;19.50;12.00
69349;PMS5003;64554;43.452;4.934;2023-09-18T00:32:42;20.67;18.67;12.33
69349;PMS5003;64554;43.452;4.934;2023-09-18T00:35:09;29.25;20.50;12.75
69349;PMS5003;64554;43.452;4.934;2023-09-18T00:37:36;25.50;22.50;12.00
69349;PMS5003;64554;43.452;4.934;2023-09-18T00:40:03;25.20;23.00;13.00
69349;PMS5003;64554;43.452;4.934;2023-09-18T00:42:31;25.00;23.40;10.40
69349;PMS5003;64554;43.452;4.934;2023-09-18T00:44:58;27.60;23.00;12.00
69349;PMS5003;64554;43.452;4.934;2023-09-18T00:47:25;21.00;20.25;11.50
69349;PMS5003;64554;43.452;4.934;2023-09-18T00:49:53;24.75;21.25;12.25
69349;PMS5003;64554;43.452;4.934;2023-09-18T00:52:20;22.50;16.50;12.50
69349;PMS5003;64554;43.452;4.934;2023-09-18T00:54:48;25.00;22.50;12.00
69349;PMS5003;64554;43.452;4.934;2023-09-18T00:57:16;23.25;20.00;13.75
69349;PMS5003;64554;43.452;4.934;2023-09-18T00:59:43;26.80;20.80;11.20
69349;PMS5003;64554;43.452;4.934;2023-09-18T01:02:11;20.80;18.80;12.60
69349;PMS5003;64554;43.452;4.934;2023-09-18T01:04:38;21.67;19.00;13.00
69349;PMS5003;64554;43.452;4.934;2023-09-18T01:07:11;28.75;20.50;14.75
69349;PMS5003;64554;43.452;4.934;2023-09-18T01:09:37;26.60;23.60;14.00
69349;PMS5003;64554;43.452;4.934;2023-09-18T01:12:15;25.40;19.00;13.00
69349;PMS5003;64554;43.452;4.934;2023-09-18T01:14:45;21.00;19.00;12.00
69349;PMS5003;64554;43.452;4.934;2023-09-18T01:17:14;24.60;23.20;11.40
69349;PMS5003;64554;43.452;4.934;2023-09-18T01:19:43;30.50;25.50;14.00
69349;PMS5003;64554;43.452;4.934;2023-09-18T01:22:14;27.25;24.75;13.50
69349;PMS5003;64554;43.452;4.934;2023-09-18T01:24:42;21.60;19.00;13.00
69349;PMS5003;64554;43.452;4.934;2023-09-18T01:27:11;21.00;18.25;12.00
69349;PMS5003;64554;43.452;4.934;2023-09-18T01:29:40;23.60;20.60;13.00
69349;PMS5003;64554;43.452;4.934;2023-09-18T01:32:06;24.20;20.40;10.00
69349;PMS5003;64554;43.452;4.934;2023-09-18T01:37:14;22.00;18.00;12.25
69349;PMS5003;64554;43.452;4.934;2023-09-18T01:39:41;27.25;23.75;12.75
69349;PMS5003;64554;43.452;4.934;2023-09-18T01:42:08;26.20;22.00;13.40
69349;PMS5003;64554;43.452;4.934;2023-09-18T01:44:36;22.80;17.40;11.40
69349;PMS5003;64554;43.452;4.934;2023-09-18T01:47:07;32.67;27.33;14.00
69349;PMS5003;64554;43.452;4.934;2023-09-18T01:49:35;22.00;18.00;13.00
69349;PMS5003;64554;43.452;4.934;2023-09-18T01:52:03;20.50;19.50;11.00
69349;PMS5003;64554;43.452;4.934;2023-09-18T01:54:30;24.20;19.00;12.40
69349;PMS5003;64554;43.452;4.934;2023-09-18T01:56:57;23.50;20.50;14.00
69349;PMS5003;64554;43.452;4.934;2023-09-18T01:59:24;22.75;21.75;12.50
69349;PMS5003;64554;43.452;4.934;2023-09-18T02:01:52;29.00;24.40;13.40
69349;PMS5003;64554;43.452;4.934;2023-09-18T02:04:21;25.50;23.50;13.00
69349;PMS5003;64554;43.452;4.934;2023-09-18T02:07:08;27.40;24.60;12.60
69349;PMS5003;64554;43.452;4.934;2023-09-18T02:09:35;33.33;28.00;15.67
69349;PMS5003;64554;43.452;4.934;2023-09-18T02:12:04;26.40;24.40;13.00
69349;PMS5003;64554;43.452;4.934;2023-09-18T02:14:30;23.00;20.50;13.50
69349;PMS5003;64554;43.452;4.934;2023-09-18T02:16:58;25.33;22.33;14.00
69349;PMS5003;64554;43.452;4.934;2023-09-18T02:19:25;23.00;20.00;13.50
69349;PMS5003;64554;43.452;4.934;2023-09-18T02:21:52;30.75;27.00;15.00
69349;PMS5003;64554;43.452;4.934;2023-09-18T02:24:22;25.00;21.00;15.00
69349;PMS5003;64554;43.452;4.934;2023-09-18T02:26:50;24.33;22.00;13.00
69349;PMS5003;64554;43.452;4.934;2023-09-18T02:29:16;27.00;23.60;17.60
69349;PMS5003;64554;43.452;4.934;2023-09-18T02:31:43;26.75;22.00;13.75
69349;PMS5003;64554;43.452;4.934;2023-09-18T02:34:10;35.75;27.50;16.50
69349;PMS5003;64554;43.452;4.934;2023-09-18T02:36:39;24.00;20.00;13.50
69349;PMS5003;64554;43.452;4.934;2023-09-18T02:39:06;27.00;21.50;12.00
69349;PMS5003;64554;43.452;4.934;2023-09-18T02:41:33;25.75;22.00;12.25
69349;PMS5003;64554;43.452;4.934;2023-09-18T02:44:00;28.00;26.75;15.00
69349;PMS5003;64554;43.452;4.934;2023-09-18T02:46:26;31.25;25.50;16.50
69349;PMS5003;64554;43.452;4.934;2023-09-18T02:48:53;25.40;22.40;13.80
69349;PMS5003;64554;43.452;4.934;2023-09-18T02:51:20;33.75;25.00;14.50
69349;PMS5003;64554;43.452;4.934;2023-09-18T02:53:47;32.50;26.25;14.50
69349;PMS5003;64554;43.452;4.934;2023-09-18T02:56:13;25.50;24.75;14.75
69349;PMS5003;64554;43.452;4.934;2023-09-18T02:58:41;30.20;25.00;14.00
69349;PMS5003;64554;43.452;4.934;2023-09-18T03:01:08;35.25;29.00;16.00
69349;PMS5003;64554;43.452;4.934;2023-09-18T03:03:34;31.33;23.33;15.00
69349;PMS5003;64554;43.452;4.934;2023-09-18T03:06:02;32.75;26.00;14.75
69349;PMS5003;64554;43.452;4.934;2023-09-18T03:08:30;30.20;28.80;15.20
69349;PMS5003;64554;43.452;4.934;2023-09-18T03:10:57;34.80;29.40;16.80
69349;PMS5003;64554;43.452;4.934;2023-09-18T03:13:25;27.20;24.60;14.80
69349;PMS5003;64554;43.452;4.934;2023-09-18T03:15:52;32.00;26.50;16.75
69349;PMS5003;64554;43.452;4.934;2023-09-18T03:18:19;30.00;27.60;15.80
69349;PMS5003;64554;43.452;4.934;2023-09-18T03:20:46;34.50;28.50;15.25
69349;PMS5003;64554;43.452;4.934;2023-09-18T03:23:15;35.00;27.40;13.40
69349;PMS5003;64554;43.452;4.934;2023-09-18T03:25:41;38.60;30.20;17.80
69349;PMS5003;64554;43.452;4.934;2023-09-18T03:28:16;30.50;24.50;14.50
69349;PMS5003;64554;43.452;4.934;2023-09-18T03:30:43;33.00;26.00;15.40
69349;PMS5003;64554;43.452;4.934;2023-09-18T03:33:10;34.50;29.50;17.00
69349;PMS5003;64554;43.452;4.934;2023-09-18T03:35:49;28.75;22.75;14.25
69349;PMS5003;64554;43.452;4.934;2023-09-18T03:38:16;37.50;26.50;16.25
69349;PMS5003;64554;43.452;4.934;2023-09-18T03:40:43;33.25;30.25;17.00
69349;PMS5003;64554;43.452;4.934;2023-09-18T03:43:10;32.00;29.00;16.60
69349;PMS5003;64554;43.452;4.934;2023-09-18T03:45:39;30.80;23.20;17.80
69349;PMS5003;64554;43.452;4.934;2023-09-18T03:48:08;28.20;24.20;14.00
69349;PMS5003;64554;43.452;4.934;2023-09-18T03:50:35;27.20;21.80;15.60
69349;PMS5003;64554;43.452;4.934;2023-09-18T03:53:02;30.00;27.25;14.50
69349;PMS5003;64554;43.452;4.934;2023-09-18T03:55:30;35.50;30.00;14.75
69349;PMS5003;64554;43.452;4.934;2023-09-18T03:57:57;21.00;21.00;14.00
69349;PMS5003;64554;43.452;4.934;2023-09-18T04:00:24;28.00;22.50;13.00
69349;PMS5003;64554;43.452;4.934;2023-09-18T04:02:50;26.00;21.00;14.67
69349;PMS5003;64554;43.452;4.934;2023-09-18T04:05:18;34.80;27.40;14.00
69349;PMS5003;64554;43.452;4.934;2023-09-18T04:07:45;29.25;25.25;14.00
69349;PMS5003;64554;43.452;4.934;2023-09-18T04:10:13;24.00;23.00;13.25
69349;PMS5003;64554;43.452;4.934;2023-09-18T04:12:50;20.75;17.75;12.00
69349;PMS5003;64554;43.452;4.934;2023-09-18T04:15:18;28.75;23.00;12.00
69349;PMS5003;64554;43.452;4.934;2023-09-18T04:17:46;22.80;19.60;13.40
69349;PMS5003;64554;43.452;4.934;2023-09-18T04:20:13;20.40;18.40;12.60
69349;PMS5003;64554;43.452;4.934;2023-09-18T04:22:44;25.75;22.00;11.75
69349;PMS5003;64554;43.452;4.934;2023-09-18T04:25:11;22.50;18.50;11.50
69349;PMS5003;64554;43.452;4.934;2023-09-18T04:27:39;21.00;17.00;12.00
69349;PMS5003;64554;43.452;4.934;2023-09-18T04:30:06;20.00;20.00;10.00
69349;PMS5003;64554;43.452;4.934;2023-09-18T04:32:39;18.00;17.00;11.00
69349;PMS5003;64554;43.452;4.934;2023-09-18T04:35:07;19.20;16.60;9.80
69349;PMS5003;64554;43.452;4.934;2023-09-18T04:37:35;23.25;21.25;12.00
69349;PMS5003;64554;43.452;4.934;2023-09-18T04:40:03;23.60;18.00;11.00
69349;PMS5003;64554;43.452;4.934;2023-09-18T04:42:31;33.40;24.80;11.40
69349;PMS5003;64554;43.452;4.934;2023-09-18T04:44:58;21.40;19.00;10.60
69349;PMS5003;64554;43.452;4.934;2023-09-18T04:47:25;23.00;21.00;12.00
69349;PMS5003;64554;43.452;4.934;2023-09-18T04:49:52;21.00;17.20;9.40
69349;PMS5003;64554;43.452;4.934;2023-09-18T04:52:18;21.00;18.00;11.00
69349;PMS5003;64554;43.452;4.934;2023-09-18T04:54:45;19.50;16.50;12.50
69349;PMS5003;64554;43.452;4.934;2023-09-18T04:57:11;22.00;18.40;11.40
69349;PMS5003;64554;43.452;4.934;2023-09-18T04:59:38;20.25;19.00;11.00
69349;PMS5003;64554;43.452;4.934;2023-09-18T05:02:05;20.80;20.80;12.00
69349;PMS5003;64554;43.452;4.934;2023-09-18T05:04:32;21.40;18.40;11.60
69349;PMS5003;64554;43.452;4.934;2023-09-18T05:06:59;25.00;22.75;12.75
69349;PMS5003;64554;43.452;4.934;2023-09-18T05:09:31;22.40;20.60;14.00
69349;PMS5003;64554;43.452;4.934;2023-09-18T05:11:59;20.75;19.00;14.00
69349;PMS5003;64554;43.452;4.934;2023-09-18T05:14:26;18.75;15.00;9.50
69349;PMS5003;64554;43.452;4.934;2023-09-18T05:16:53;29.75;22.75;10.50
69349;PMS5003;64554;43.452;4.934;2023-09-18T05:19:20;16.60;16.60;11.00
69349;PMS5003;64554;43.452;4.934;2023-09-18T05:21:48;24.50;23.25;11.00
69349;PMS5003;64554;43.452;4.934;2023-09-18T05:24:14;26.50;23.50;11.25
69349;PMS5003;64554;43.452;4.934;2023-09-18T05:26:41;29.00;23.20;10.80
69349;PMS5003;64554;43.452;4.934;2023-09-18T05:29:08;25.25;20.00;13.50
69349;PMS5003;64554;43.452;4.934;2023-09-18T05:31:36;26.40;20.20;10.00
69349;PMS5003;64554;43.452;4.934;2023-09-18T05:34:04;23.80;21.80;12.80
69349;PMS5003;64554;43.452;4.934;2023-09-18T05:36:31;30.00;27.00;13.50
69349;PMS5003;64554;43.452;4.934;2023-09-18T05:38:58;28.00;25.00;11.20
69349;PMS5003;64554;43.452;4.934;2023-09-18T05:41:25;23.50;18.75;13.25
69349;PMS5003;64554;43.452;4.934;2023-09-18T05:43:56;24.00;19.40;12.00
69349;PMS5003;64554;43.452;4.934;2023-09-18T05:46:22;23.00;19.00;11.00
69349;PMS5003;64554;43.452;4.934;2023-09-18T05:48:50;22.40;18.40;10.40
69349;PMS5003;64554;43.452;4.934;2023-09-18T05:51:17;19.80;19.80;12.80
69349;PMS5003;64554;43.452;4.934;2023-09-18T05:53:44;22.00;22.00;13.40
69349;PMS5003;64554;43.452;4.934;2023-09-18T05:56:11;21.40;17.40;11.00
69349;PMS5003;64554;43.452;4.934;2023-09-18T05:58:37;17.80;15.00;10.60
69349;PMS5003;64554;43.452;4.934;2023-09-18T06:01:06;20.00;17.20;10.80
69349;PMS5003;64554;43.452;4.934;2023-09-18T06:03:33;18.75;15.00;11.25
69349;PMS5003;64554;43.452;4.934;2023-09-18T06:06:02;30.25;19.75;11.25
69349;PMS5003;64554;43.452;4.934;2023-09-18T06:08:29;16.20;15.60;11.00
69349;PMS5003;64554;43.452;4.934;2023-09-18T06:10:57;26.50;21.00;13.00
69349;PMS5003;64554;43.452;4.934;2023-09-18T06:13:24;24.50;20.50;11.50
69349;PMS5003;64554;43.452;4.934;2023-09-18T06:15:54;29.75;22.75;12.50
69349;PMS5003;64554;43.452;4.934;2023-09-18T06:18:22;23.00;20.50;12.00
69349;PMS5003;64554;43.452;4.934;2023-09-18T06:20:49;24.60;16.60;9.60
69349;PMS5003;64554;43.452;4.934;2023-09-18T06:23:16;19.25;18.50;11.25
69349;PMS5003;64554;43.452;4.934;2023-09-18T06:25:42;23.00;18.50;12.00
69349;PMS5003;64554;43.452;4.934;2023-09-18T06:28:09;24.50;20.00;11.50
69349;PMS5003;64554;43.452;4.934;2023-09-18T06:30:35;23.75;19.75;10.75
69349;PMS5003;64554;43.452;4.934;2023-09-18T06:33:02;20.00;16.00;10.00
69349;PMS5003;64554;43.452;4.934;2023-09-18T06:35:31;15.50;14.00;9.75
69349;PMS5003;64554;43.452;4.934;2023-09-18T06:37:57;23.40;17.00;10.60
69349;PMS5003;64554;43.452;4.934;2023-09-18T06:40:25;23.50;20.75;11.50
69349;PMS5003;64554;43.452;4.934;2023-09-18T06:42:57;21.20;17.00;10.40
69349;PMS5003;64554;43.452;4.934;2023-09-18T06:45:24;25.50;21.00;11.75
69349;PMS5003;64554;43.452;4.934;2023-09-18T06:47:51;20.20;18.20;10.80
69349;PMS5003;64554;43.452;4.934;2023-09-18T06:50:19;21.20;19.20;10.80
69349;PMS5003;64554;43.452;4.934;2023-09-18T06:52:46;22.67;20.00;9.67
69349;PMS5003;64554;43.452;4.934;2023-09-18T06:55:13;22.50;19.00;8.50
69349;PMS5003;64554;43.452;4.934;2023-09-18T06:57:40;21.40;17.00;11.00
69349;PMS5003;64554;43.452;4.934;2023-09-18T07:00:07;17.50;15.50;11.25
69349;PMS5003;64554;43.452;4.934;2023-09-18T07:02:34;20.40;17.40;11.00
69349;PMS5003;64554;43.452;4.934;2023-09-18T07:05:01;31.75;22.50;11.50
69349;PMS5003;64554;43.452;4.934;2023-09-18T07:07:28;15.75;14.00;10.00
69349;PMS5003;64554;43.452;4.934;2023-09-18T07:09:55;19.50;15.50;11.00
69349;PMS5003;64554;43.452;4.934;2023-09-18T07:12:24;23.25;21.75;10.75
69349;PMS5003;64554;43.452;4.934;2023-09-18T07:14:51;19.00;15.50;8.50
69349;PMS5003;64554;43.452;4.934;2023-09-18T07:17:17;24.00;20.00;11.60
69349;PMS5003;64554;43.452;4.934;2023-09-18T07:19:44;20.80;15.80;10.00
69349;PMS5003;64554;43.452;4.934;2023-09-18T07:22:10;19.00;18.00;11.00
69349;PMS5003;64554;43.452;4.934;2023-09-18T07:24:37;20.40;18.40;10.60
69349;PMS5003;64554;43.452;4.934;2023-09-18T07:27:07;26.25;21.50;14.75
69349;PMS5003;64554;43.452;4.934;2023-09-18T07:29:34;18.60;18.60;12.60
69349;PMS5003;64554;43.452;4.934;2023-09-18T07:32:01;23.50;19.25;11.25
69349;PMS5003;64554;43.452;4.934;2023-09-18T07:34:28;23.25;16.00;10.00
69349;PMS5003;64554;43.452;4.934;2023-09-18T07:36:54;25.00;18.75;12.75
69349;PMS5003;64554;43.452;4.934;2023-09-18T07:39:22;25.50;23.25;10.00
69349;PMS5003;64554;43.452;4.934;2023-09-18T07:41:49;23.60;22.60;11.00
69349;PMS5003;64554;43.452;4.934;2023-09-18T07:44:19;28.40;26.20;13.80
69349;PMS5003;64554;43.452;4.934;2023-09-18T07:46:47;27.50;20.50;12.50
69349;PMS5003;64554;43.452;4.934;2023-09-18T07:49:13;25.80;20.80;12.80
69349;PMS5003;64554;43.452;4.934;2023-09-18T07:51:40;28.00;25.00;13.00
69349;PMS5003;64554;43.452;4.934;2023-09-18T07:54:07;29.33;21.33;12.33
69349;PMS5003;64554;43.452;4.934;2023-09-18T07:56:34;33.20;23.00;11.20
69349;PMS5003;64554;43.452;4.934;2023-09-18T07:59:02;27.75;22.25;12.50
69349;PMS5003;64554;43.452;4.934;2023-09-18T08:01:29;25.00;22.00;13.00
69349;PMS5003;64554;43.452;4.934;2023-09-18T08:03:58;23.25;21.25;11.00
69349;PMS5003;64554;43.452;4.934;2023-09-18T08:06:27;17.75;15.00;9.00
69349;PMS5003;64554;43.452;4.934;2023-09-18T08:08:54;28.00;23.20;13.20
69349;PMS5003;64554;43.452;4.934;2023-09-18T08:11:21;22.60;18.80;9.80
69349;PMS5003;64554;43.452;4.934;2023-09-18T08:13:48;26.67;19.67;12.67
69349;PMS5003;64554;43.452;4.934;2023-09-18T08:16:15;17.60;16.20;10.00
69349;PMS5003;64554;43.452;4.934;2023-09-18T08:18:43;28.60;22.20;11.40
69349;PMS5003;64554;43.452;4.934;2023-09-18T08:21:10;18.00;17.00;9.50
69349;PMS5003;64554;43.452;4.934;2023-09-18T08:23:39;23.00;14.75;11.00
69349;PMS5003;64554;43.452;4.934;2023-09-18T08:26:06;29.40;23.80;10.80
69349;PMS5003;64554;43.452;4.934;2023-09-18T08:28:33;20.00;18.75;12.50
69349;PMS5003;64554;43.452;4.934;2023-09-18T08:31:02;28.50;23.50;12.50
69349;PMS5003;64554;43.452;4.934;2023-09-18T08:33:28;23.60;20.60;10.00
69349;PMS5003;64554;43.452;4.934;2023-09-18T08:35:55;27.75;23.75;12.75
69349;PMS5003;64554;43.452;4.934;2023-09-18T08:38:22;24.25;17.50;10.00
69349;PMS5003;64554;43.452;4.934;2023-09-18T08:40:49;30.25;27.25;11.50
69349;PMS5003;64554;43.452;4.934;2023-09-18T08:43:17;26.00;19.75;11.00
69349;PMS5003;64554;43.452;4.934;2023-09-18T08:48:17;31.00;23.00;11.00
69349;PMS5003;64554;43.452;4.934;2023-09-18T08:50:45;23.00;17.20;10.60
69349;PMS5003;64554;43.452;4.934;2023-09-18T08:53:11;21.25;19.00;11.25
69349;PMS5003;64554;43.452;4.934;2023-09-18T08:55:38;21.25;19.00;11.75
69349;PMS5003;64554;43.452;4.934;2023-09-18T08:58:06;25.80;21.00;11.60
69349;PMS5003;64554;43.452;4.934;2023-09-18T09:00:32;27.20;18.80;11.00
69349;PMS5003;64554;43.452;4.934;2023-09-18T09:02:59;27.00;23.33;12.33
69349;PMS5003;64554;43.452;4.934;2023-09-18T09:05:26;28.80;26.40;12.40
69349;PMS5003;64554;43.452;4.934;2023-09-18T09:07:52;24.75;20.00;13.25
69349;PMS5003;64554;43.452;4.934;2023-09-18T09:10:19;30.50;25.75;14.00
69349;PMS5003;64554;43.452;4.934;2023-09-18T09:12:52;28.50;23.00;12.25
69349;PMS5003;64554;43.452;4.934;2023-09-18T09:15:23;24.25;22.00;10.50
69349;PMS5003;64554;43.452;4.934;2023-09-18T09:17:51;28.00;21.75;13.00
69349;PMS5003;64554;43.452;4.934;2023-09-18T09:20:18;25.50;21.00;11.75
69349;PMS5003;64554;43.452;4.934;2023-09-18T09:22:47;24.20;17.20;10.80
69349;PMS5003;64554;43.452;4.934;2023-09-18T09:27:47;17.50;15.25;10.25
69349;PMS5003;64554;43.452;4.934;2023-09-18T09:30:20;30.80;22.20;11.00
69349;PMS5003;64554;43.452;4.934;2023-09-18T09:32:47;23.40;21.40;9.40
69349;PMS5003;64554;43.452;4.934;2023-09-18T09:35:25;30.80;22.60;11.00
69349;PMS5003;64554;43.452;4.934;2023-09-18T09:37:58;28.25;22.00;8.50
69349;PMS5003;64554;43.452;4.934;2023-09-18T09:40:28;25.25;21.00;9.75
69349;PMS5003;64554;43.452;4.934;2023-09-18T09:42:56;27.75;17.25;9.00
69349;PMS5003;64554;43.452;4.934;2023-09-18T09:45:27;24.80;19.60;10.20
69349;PMS5003;64554;43.452;4.934;2023-09-18T09:47:57;25.50;18.00;10.75
69349;PMS5003;64554;43.452;4.934;2023-09-18T09:50:24;22.00;15.25;8.00
69349;PMS5003;64554;43.452;4.934;2023-09-18T09:52:53;24.00;17.75;10.00
69349;PMS5003;64554;43.452;4.934;2023-09-18T09:55:24;26.00;16.00;7.75
69349;PMS5003;64554;43.452;4.934;2023-09-18T09:57:53;18.80;12.80;7.60
69349;PMS5003;64554;43.452;4.934;2023-09-18T10:00:24;25.50;18.75;9.50
69349;PMS5003;64554;43.452;4.934;2023-09-18T10:02:57;24.00;19.00;8.00
69349;PMS5003;64554;43.452;4.934;2023-09-18T10:05:26;24.75;18.75;6.25
69349;PMS5003;64554;43.452;4.934;2023-09-18T10:07:59;25.00;20.75;7.00
69349;PMS5003;64554;43.452;4.934;2023-09-18T10:10:30;19.75;17.00;10.00
69349;PMS5003;64554;43.452;4.934;2023-09-18T10:13:00;22.50;19.00;9.00
69349;PMS5003;64554;43.452;4.934;2023-09-18T10:15:27;21.00;13.50;9.00
69349;PMS5003;64554;43.452;4.934;2023-09-18T10:17:57;29.75;19.25;9.50
69349;PMS5003;64554;43.452;4.934;2023-09-18T10:20:26;23.00;18.60;8.60
69349;PMS5003;64554;43.452;4.934;2023-09-18T10:22:54;27.40;20.00;8.60
69349;PMS5003;64554;43.452;4.934;2023-09-18T10:25:27;25.60;20.20;9.00
69349;PMS5003;64554;43.452;4.934;2023-09-18T10:27:54;21.40;15.40;9.00
69349;PMS5003;64554;43.452;4.934;2023-09-18T10:30:29;21.00;13.75;6.50
69349;PMS5003;64554;43.452;4.934;2023-09-18T10:32:58;19.60;15.60;8.60
69349;PMS5003;64554;43.452;4.934;2023-09-18T10:35:27;21.00;13.50;7.25
69349;PMS5003;64554;43.452;4.934;2023-09-18T10:37:54;23.40;11.60;7.00
69349;PMS5003;64554;43.452;4.934;2023-09-18T10:40:21;15.60;13.20;7.20
69349;PMS5003;64554;43.452;4.934;2023-09-18T10:42:48;25.00;16.80;6.00
69349;PMS5003;64554;43.452;4.934;2023-09-18T10:45:17;26.50;17.50;7.50
69349;PMS5003;64554;43.452;4.934;2023-09-18T10:47:44;24.75;20.00;8.00
69349;PMS5003;64554;43.452;4.934;2023-09-18T10:50:22;21.50;15.25;5.75
69349;PMS5003;64554;43.452;4.934;2023-09-18T10:52:48;24.50;14.00;4.75
69349;PMS5003;64554;43.452;4.934;2023-09-18T10:55:15;27.80;19.60;8.80
69349;PMS5003;64554;43.452;4.934;2023-09-18T10:57:52;23.25;16.00;6.25
69349;PMS5003;64554;43.452;4.934;2023-09-18T11:00:19;18.75;12.75;6.00
69349;PMS5003;64554;43.452;4.934;2023-09-18T11:02:51;30.50;17.25;7.75
69349;PMS5003;64554;43.452;4.934;2023-09-18T11:05:34;35.40;19.40;8.00
69349;PMS5003;64554;43.452;4.934;2023-09-18T11:10:57;17.25;13.25;6.50
69349;PMS5003;64554;43.452;4.934;2023-09-18T11:13:28;27.60;19.60;7.40
69349;PMS5003;64554;43.452;4.934;2023-09-18T11:15:58;24.50;16.50;6.00
69349;PMS5003;64554;43.452;4.934;2023-09-18T11:18:31;22.00;17.40;8.00
69349;PMS5003;64554;43.452;4.934;2023-09-18T11:21:11;32.60;19.60;6.80
69349;PMS5003;64554;43.452;4.934;2023-09-18T11:23:39;26.60;17.80;8.00
69349;PMS5003;64554;43.452;4.934;2023-09-18T11:26:14;28.00;20.25;9.00
69349;PMS5003;64554;43.452;4.934;2023-09-18T11:28:41;31.50;21.75;8.00
69349;PMS5003;64554;43.452;4.934;2023-09-18T11:31:09;30.25;22.50;7.75
69349;PMS5003;64554;43.452;4.934;2023-09-18T11:33:37;27.25;20.00;9.25
69349;PMS5003;64554;43.452;4.934;2023-09-18T11:36:47;29.80;20.40;9.40
69349;PMS5003;64554;43.452;4.934;2023-09-18T11:38:57;20.80;17.80;8.00
69349;PMS5003;64554;43.452;4.934;2023-09-18T11:41:32;20.00;17.33;7.67
69349;PMS5003;64554;43.452;4.934;2023-09-18T11:46:49;32.25;23.00;10.00
69349;PMS5003;64554;43.452;4.934;2023-09-18T11:49:23;19.80;15.40;9.40
69349;PMS5003;64554;43.452;4.934;2023-09-18T11:51:53;28.50;21.75;10.00
69349;PMS5003;64554;43.452;4.934;2023-09-18T11:54:20;28.40;18.60;9.40
69349;PMS5003;64554;43.452;4.934;2023-09-18T11:56:49;30.00;24.00;8.60
69349;PMS5003;64554;43.452;4.934;2023-09-18T11:59:16;22.00;18.50;10.50
69349;PMS5003;64554;43.452;4.934;2023-09-18T12:01:52;23.25;17.00;6.25
69349;PMS5003;64554;43.452;4.934;2023-09-18T12:04:18;25.00;16.00;8.50
69349;PMS5003;64554;43.452;4.934;2023-09-18T12:06:53;17.00;13.00;7.00
69349;PMS5003;64554;43.452;4.934;2023-09-18T12:09:20;27.20;18.80;7.80
69349;PMS5003;64554;43.452;4.934;2023-09-18T12:11:46;24.25;14.00;6.00
69349;PMS5003;64554;43.452;4.934;2023-09-18T12:14:18;24.50;19.25;7.75
69349;PMS5003;64554;43.452;4.934;2023-09-18T12:16:45;17.80;15.20;8.80
69349;PMS5003;64554;43.452;4.934;2023-09-18T12:19:17;21.20;17.20;7.00
69349;PMS5003;64554;43.452;4.934;2023-09-18T12:21:48;26.50;16.75;8.25
69349;PMS5003;64554;43.452;4.934;2023-09-18T12:24:15;26.00;12.40;6.20
69349;PMS5003;64554;43.452;4.934;2023-09-18T12:26:46;23.75;17.75;9.75
69349;PMS5003;64554;43.452;4.934;2023-09-18T12:29:13;16.80;12.60;7.00
69349;PMS5003;64554;43.452;4.934;2023-09-18T12:31:40;21.00;15.50;6.00
69349;PMS5003;64554;43.452;4.934;2023-09-18T12:34:16;22.20;14.60;7.00
69349;PMS5003;64554;43.452;4.934;2023-09-18T12:36:44;20.20;15.00;7.60
69349;PMS5003;64554;43.452;4.934;2023-09-18T12:39:10;23.60;16.20;7.60
69349;PMS5003;64554;43.452;4.934;2023-09-18T12:41:37;17.00;12.20;6.60
69349;PMS5003;64554;43.452;4.934;2023-09-18T12:44:05;24.40;16.60;9.00
69349;PMS5003;64554;43.452;4.934;2023-09-18T12:46:32;25.40;18.60;6.40
69349;PMS5003;64554;43.452;4.934;2023-09-18T12:48:59;17.25;13.25;7.75
69349;PMS5003;64554;43.452;4.934;2023-09-18T12:51:29;21.50;15.75;7.75
69349;PMS5003;64554;43.452;4.934;2023-09-18T12:54:01;17.00;11.50;6.50
69349;PMS5003;64554;43.452;4.934;2023-09-18T12:56:34;23.60;15.80;5.60
69349;PMS5003;64554;43.452;4.934;2023-09-18T12:59:06;26.50;18.75;6.50
69349;PMS5003;64554;43.452;4.934;2023-09-18T13:01:40;22.00;17.25;10.25
69349;PMS5003;64554;43.452;4.934;2023-09-18T13:04:07;24.25;15.00;8.00
69349;PMS5003;64554;43.452;4.934;2023-09-18T13:06:38;18.50;14.25;7.00
69349;PMS5003;64554;43.452;4.934;2023-09-18T13:09:15;28.50;21.25;9.25
69349;PMS5003;64554;43.452;4.934;2023-09-18T13:11:52;21.40;15.20;9.00
69349;PMS5003;64554;43.452;4.934;2023-09-18T13:14:19;24.50;17.00;7.50
69349;PMS5003;64554;43.452;4.934;2023-09-18T13:16:45;17.00;11.40;7.00
69349;PMS5003;64554;43.452;4.934;2023-09-18T13:19:12;23.80;19.20;7.80
69349;PMS5003;64554;43.452;4.934;2023-09-18T13:21:45;17.80;13.20;5.40
69349;PMS5003;64554;43.452;4.934;2023-09-18T13:24:28;16.80;11.20;7.00
69349;PMS5003;64554;43.452;4.934;2023-09-18T13:26:55;19.75;17.75;8.50
69349;PMS5003;64554;43.452;4.934;2023-09-18T13:29:26;15.00;10.40;6.20
69349;PMS5003;64554;43.452;4.934;2023-09-18T13:31:53;21.60;14.60;9.00
69349;PMS5003;64554;43.452;4.934;2023-09-18T13:34:20;15.25;11.25;6.25
69349;PMS5003;64554;43.452;4.934;2023-09-18T13:36:47;18.00;14.00;9.75
69349;PMS5003;64554;43.452;4.934;2023-09-18T13:39:14;21.75;13.50;7.25
69349;PMS5003;64554;43.452;4.934;2023-09-18T13:41:44;22.80;15.20;7.00
69349;PMS5003;64554;43.452;4.934;2023-09-18T13:44:11;22.00;15.40;7.40
69349;PMS5003;64554;43.452;4.934;2023-09-18T13:46:38;23.33;22.00;7.67
69349;PMS5003;64554;43.452;4.934;2023-09-18T13:49:05;16.75;14.00;7.00
69349;PMS5003;64554;43.452;4.934;2023-09-18T13:51:33;20.00;12.50;7.00
69349;PMS5003;64554;43.452;4.934;2023-09-18T13:53:59;17.80;13.20;7.40
69349;PMS5003;64554;43.452;4.934;2023-09-18T13:56:27;18.20;12.00;6.60
69349;PMS5003;64554;43.452;4.934;2023-09-18T13:58:57;21.25;12.50;7.00
69349;PMS5003;64554;43.452;4.934;2023-09-18T14:01:24;14.20;10.20;5.80
69349;PMS5003;64554;43.452;4.934;2023-09-18T14:03:55;13.50;9.75;6.50
69349;PMS5003;64554;43.452;4.934;2023-09-18T14:06:21;20.00;16.75;9.25
69349;PMS5003;64554;43.452;4.934;2023-09-18T14:08:48;17.25;16.00;7.25